| time (UTC) | temp F | wind direction | speed knots | gust knots | rain 1hr in | rain 24hr in | rain mn in | humidity % | barometer mb |
| 20260903141553 | 83 | 24 | 1.7 | 0.0 | 0.00 | 0.00 | 0.00 | 77 | 1010.5 |
| 20260903140052 | 82 | 162 | 1.7 | 0.0 | 0.00 | 0.00 | 0.00 | 79 | 1010.6 |
| 20260903134551 | 82 | 291 | 1.7 | 0.0 | 0.00 | 0.00 | 0.00 | 80 | 1010.6 |
| 20260903133056 | 81 | 189 | 1.7 | 0.0 | 0.00 | 0.00 | 0.00 | 82 | 1010.6 |
| 20260903131605 | 80 | 147 | 0.9 | 0.0 | 0.00 | 0.00 | 0.00 | 82 | 1010.6 |
| 20260903130054 | 80 | 214 | 0.9 | 0.0 | 0.00 | 0.00 | 0.00 | 83 | 1010.6 |
| 20260903124547 | 79 | 203 | 0.9 | 0.0 | 0.00 | 0.00 | 0.00 | 84 | 1010.5 |
| 20260903123049 | 79 | 214 | 0.9 | 0.0 | 0.00 | 0.00 | 0.00 | 84 | 1010.4 |
| 20260903121547 | 79 | 148 | 0.9 | 0.0 | 0.00 | 0.00 | 0.00 | 84 | 1010.3 |
| 20260903120046 | 79 | 165 | 1.7 | 0.0 | 0.00 | 0.00 | 0.00 | 85 | 1010.3 |
| 20260903114544 | 79 | 120 | 0.9 | 0.0 | 0.00 | 0.00 | 0.00 | 84 | 1010.2 |
| 20260903113045 | 80 | 85 | 0.9 | 0.0 | 0.00 | 0.00 | 0.00 | 84 | 1010.2 |
| 20260903111543 | 80 | 154 | 0.9 | 0.0 | 0.00 | 0.00 | 0.00 | 84 | 1010.1 |
| 20260903110041 | 80 | 333 | 1.7 | 0.0 | 0.00 | 0.00 | 0.00 | 84 | 1010.1 |
| 20260903104541 | 79 | 155 | 0.9 | 0.0 | 0.00 | 0.00 | 0.00 | 84 | 1010.0 |
| 20260903103041 | 79 | 193 | 0.9 | 0.0 | 0.00 | 0.00 | 0.00 | 84 | 1009.9 |
| 20260903101540 | 79 | 124 | 0.9 | 0.0 | 0.00 | 0.00 | 0.00 | 84 | 1009.8 |
| 20260903100040 | 79 | 132 | 0.9 | 0.0 | 0.00 | 0.00 | 0.00 | 84 | 1009.8 |
| 20260903094540 | 79 | 205 | 1.7 | 0.0 | 0.00 | 0.00 | 0.00 | 84 | 1009.9 |
| 20260903093042 | 80 | 112 | 0.9 | 0.0 | 0.00 | 0.00 | 0.00 | 83 | 1010.1 |
| 20260903091538 | 80 | 214 | 1.7 | 0.0 | 0.00 | 0.00 | 0.00 | 83 | 1010.2 |
| 20260903090034 | 80 | 105 | 0.9 | 0.0 | 0.00 | 0.00 | 0.00 | 83 | 1010.2 |
| 20260903084533 | 80 | 212 | 1.7 | 0.0 | 0.00 | 0.00 | 0.00 | 82 | 1010.3 |
| 20260903083043 | 80 | 216 | 1.7 | 0.0 | 0.00 | 0.00 | 0.00 | 82 | 1010.3 |
| 20260903081531 | 80 | 152 | 0.9 | 0.0 | 0.00 | 0.00 | 0.00 | 82 | 1010.3 |
| 20260903080031 | 80 | 154 | 0.9 | 0.0 | 0.00 | 0.00 | 0.00 | 81 | 1010.2 |
| 20260903074530 | 81 | 222 | 1.7 | 0.0 | 0.00 | 0.00 | 0.00 | 80 | 1010.2 |
| 20260903073032 | 81 | 193 | 0.9 | 0.0 | 0.00 | 0.00 | 0.00 | 79 | 1010.3 |
| 20260903071528 | 81 | 191 | 1.7 | 0.0 | 0.00 | 0.00 | 0.00 | 77 | 1010.4 |
| 20260903070027 | 81 | 124 | 1.7 | 0.0 | 0.00 | 0.00 | 0.00 | 76 | 1010.4 |
| 20260903064530 | 82 | 230 | 1.7 | 0.0 | 0.00 | 0.00 | 0.00 | 75 | 1010.5 |
| 20260903063026 | 82 | 206 | 0.9 | 0.0 | 0.00 | 0.00 | 0.00 | 73 | 1010.6 |
| 20260903061525 | 82 | 199 | 1.7 | 0.0 | 0.00 | 0.00 | 0.00 | 73 | 1010.6 |
| 20260903060023 | 82 | 154 | 1.7 | 0.0 | 0.00 | 0.00 | 0.00 | 72 | 1010.6 |
| 20260903054521 | 81 | 133 | 1.7 | 0.0 | 0.00 | 0.00 | 0.00 | 74 | 1010.6 |
| 20260903053019 | 80 | 145 | 0.9 | 0.0 | 0.00 | 0.00 | 0.00 | 76 | 1010.4 |
| 20260903051518 | 80 | 147 | 0.9 | 0.0 | 0.00 | 0.00 | 0.00 | 77 | 1010.5 |
| 20260903050015 | 80 | 147 | 0.9 | 0.0 | 0.00 | 0.00 | 0.00 | 77 | 1010.4 |
| 20260903044515 | 81 | 120 | 1.7 | 0.0 | 0.00 | 0.00 | 0.00 | 76 | 1010.3 |
| 20260903043014 | 81 | 112 | 1.7 | 0.0 | 0.00 | 0.00 | 0.00 | 75 | 1010.4 |
| 20260903041516 | 82 | 130 | 1.7 | 0.0 | 0.00 | 0.00 | 0.00 | 73 | 1010.3 |
| 20260903040015 | 83 | 129 | 0.9 | 0.0 | 0.00 | 0.00 | 0.00 | 70 | 1010.5 |
| 20260903034513 | 84 | 114 | 1.7 | 0.0 | 0.00 | 0.00 | 0.00 | 66 | 1010.5 |
| 20260903033015 | 86 | 128 | 1.7 | 0.0 | 0.00 | 0.00 | 0.00 | 61 | 1010.4 |
| 20260903031511 | 87 | 133 | 0.9 | 0.0 | 0.00 | 0.00 | 0.00 | 60 | 1010.1 |
| 20260903030013 | 87 | 131 | 0.9 | 0.0 | 0.00 | 0.00 | 0.00 | 61 | 1009.7 |
| 20260903024511 | 87 | 128 | 0.0 | 0.0 | 0.00 | 0.00 | 0.00 | 60 | 1009.2 |
| 20260903023011 | 88 | 128 | 0.0 | 0.0 | 0.00 | 0.00 | 0.00 | 60 | 1009.0 |
| 20260903021513 | 88 | 128 | 0.0 | 0.0 | 0.00 | 0.00 | 0.00 | 59 | 1008.8 |
| 20260903020010 | 89 | 128 | 0.0 | 0.0 | 0.00 | 0.00 | 0.00 | 58 | 1008.5 |
| 20260903014510 | 89 | 137 | 0.0 | 0.0 | 0.00 | 0.00 | 0.00 | 58 | 1008.3 |
| 20260903013011 | 90 | 123 | 0.9 | 0.0 | 0.00 | 0.00 | 0.00 | 56 | 1008.2 |
| 20260903011508 | 91 | 141 | 0.0 | 0.0 | 0.00 | 0.00 | 0.00 | 54 | 1008.2 |
| 20260903010008 | 91 | 133 | 0.0 | 0.0 | 0.00 | 0.00 | 0.00 | 53 | 1008.1 |
| 20260903004508 | 91 | 116 | 0.0 | 0.0 | 0.00 | 0.00 | 0.00 | 54 | 1008.2 |
| 20260903003008 | 91 | 137 | 0.9 | 0.0 | 0.00 | 0.00 | 0.00 | 54 | 1008.2 |
| 20260903001506 | 92 | 128 | 0.9 | 0.0 | 0.00 | 0.00 | 0.00 | 53 | 1008.1 |
| 20260903000006 | 94 | 99 | 0.9 | 0.0 | 0.00 | 0.00 | 0.00 | 50 | 1008.1 |
| 20260902234514 | 96 | 139 | 0.9 | 0.0 | 0.00 | 0.00 | 0.00 | 45 | 1008.2 |
| 20260902233004 | 97 | 27 | 0.9 | 0.0 | 0.00 | 0.00 | 0.00 | 43 | 1008.1 |
| 20260902231508 | 98 | 31 | 1.7 | 0.0 | 0.00 | 0.00 | 0.00 | 43 | 1008.0 |
| 20260902230007 | 101 | 56 | 0.9 | 0.0 | 0.00 | 0.00 | 0.00 | 40 | 1007.9 |
| 20260902224505 | 103 | 65 | 0.9 | 0.0 | 0.00 | 0.00 | 0.00 | 37 | 1007.8 |
| 20260902223003 | 103 | 324 | 0.9 | 0.0 | 0.00 | 0.00 | 0.00 | 37 | 1007.7 |
| 20260902221505 | 101 | 351 | 0.9 | 0.0 | 0.00 | 0.00 | 0.00 | 38 | 1007.9 |
| 20260902220001 | 101 | 235 | 0.9 | 0.0 | 0.00 | 0.00 | 0.00 | 38 | 1008.1 |
| 20260902214559 | 102 | 135 | 0.9 | 0.0 | 0.00 | 0.00 | 0.00 | 37 | 1008.2 |
| 20260902213059 | 104 | 187 | 1.7 | 0.0 | 0.00 | 0.00 | 0.00 | 35 | 1008.3 |
| 20260902211557 | 106 | 217 | 1.7 | 0.0 | 0.00 | 0.00 | 0.00 | 35 | 1008.3 |
| 20260902210058 | 105 | 226 | 1.7 | 0.0 | 0.00 | 0.00 | 0.00 | 34 | 1008.4 |
| 20260902204554 | 105 | 143 | 1.7 | 0.0 | 0.00 | 0.00 | 0.00 | 35 | 1008.6 |
| 20260902203051 | 106 | 283 | 1.7 | 0.0 | 0.00 | 0.00 | 0.00 | 35 | 1008.8 |
| 20260902201557 | 104 | 193 | 1.7 | 0.0 | 0.00 | 0.00 | 0.00 | 36 | 1009.1 |
| 20260902200044 | 103 | 187 | 1.7 | 0.0 | 0.00 | 0.00 | 0.00 | 37 | 1009.4 |
| 20260902194540 | 102 | 165 | 1.7 | 0.0 | 0.00 | 0.00 | 0.00 | 37 | 1009.7 |
| 20260902193037 | 101 | 309 | 0.9 | 0.0 | 0.00 | 0.00 | 0.00 | 39 | 1009.9 |
| 20260902191535 | 100 | 234 | 1.7 | 0.0 | 0.00 | 0.00 | 0.00 | 40 | 1010.3 |
| 20260902190031 | 98 | 257 | 1.7 | 0.0 | 0.00 | 0.00 | 0.00 | 42 | 1010.4 |
| 20260902184530 | 97 | 120 | 0.9 | 0.0 | 0.00 | 0.00 | 0.00 | 44 | 1010.6 |
| 20260902183028 | 99 | 316 | 2.6 | 0.0 | 0.00 | 0.00 | 0.00 | 42 | 1010.9 |
| 20260902181526 | 98 | 229 | 2.6 | 0.0 | 0.00 | 0.00 | 0.00 | 43 | 1011.1 |
| 20260902180024 | 99 | 201 | 1.7 | 0.0 | 0.00 | 0.00 | 0.00 | 43 | 1011.4 |
| 20260902174520 | 98 | 33 | 1.7 | 0.0 | 0.00 | 0.00 | 0.00 | 43 | 1011.8 |
| 20260902173033 | 98 | 18 | 1.7 | 0.0 | 0.00 | 0.00 | 0.00 | 45 | 1012.0 |
| 20260902171516 | 97 | 101 | 0.9 | 0.0 | 0.00 | 0.00 | 0.00 | 45 | 1012.2 |
| 20260902170014 | 96 | 21 | 0.9 | 0.0 | 0.00 | 0.00 | 0.00 | 46 | 1012.3 |
| 20260902164510 | 96 | 116 | 1.7 | 0.0 | 0.00 | 0.00 | 0.00 | 47 | 1012.7 |
| 20260902163008 | 95 | 275 | 1.7 | 0.0 | 0.00 | 0.00 | 0.00 | 49 | 1012.8 |
| 20260902161507 | 94 | 302 | 1.7 | 0.0 | 0.00 | 0.00 | 0.00 | 49 | 1012.8 |
| 20260902160007 | 93 | 12 | 0.9 | 0.0 | 0.00 | 0.00 | 0.00 | 50 | 1012.8 |
| 20260902154606 | 92 | 268 | 0.9 | 0.0 | 0.00 | 0.00 | 0.00 | 52 | 1012.9 |
| 20260902153058 | 91 | 185 | 0.9 | 0.0 | 0.00 | 0.00 | 0.00 | 54 | 1012.9 |
| 20260902151604 | 90 | 279 | 0.9 | 0.0 | 0.00 | 0.00 | 0.00 | 56 | 1012.9 |
| 20260902150046 | 88 | 226 | 0.9 | 0.0 | 0.00 | 0.00 | 0.00 | 59 | 1012.8 |
| 20260902144542 | 86 | 203 | 0.9 | 0.0 | 0.00 | 0.00 | 0.00 | 64 | 1012.8 |
| 20260902143044 | 84 | 293 | 0.9 | 0.0 | 0.00 | 0.00 | 0.00 | 67 | 1012.9 |